Impacts METAR Board
IDs:

KPHX - Phoenix/Sky Harbor, AZ, US

Updated at: 0300 UTC 20 Mar 2019
Potential Impact None Slight Moderate High
Time 19/15Z 19/16Z 19/17Z 19/18Z 19/19Z 19/20Z 19/21Z 19/22Z 19/23Z 20/00Z 20/01Z 20/02Z 20/03Z
Temp63 68 73 76 78 82 83 84 84 83 82 79 77
Dewpt42 40 39 39 40 37 37 35 36 34 34 37 40
Altim30.00 30.00 30.00 30.00 29.98 29.95 29.92 29.90 29.88 29.86 29.85 29.86 29.87
VIS10 10 10 10 10 10 10 10 10 10 10 10 10
CIG100 110 -- -- 230 130 130 120 100 100 -- -- --
CoverBKNBKNSCTSCTBKNBKNBKNBKNBKNBKNSCTFEWFEW
FltCatVFRVFRVFRVFRVFRVFRVFRVFRVFRVFRVFRVFRVFR
WX--------------------------
WDir12090901001201201100140000
WSpd5 11 11 8 7 9 5 5 9 3 0 0
WGst-- -- -- -- -- -- -- -- -- -- -- -- --
Raw hourly METARs
KPHX 191451Z 12005KT 10SM BKN100 17/06 A3000 RMK AO2 SLP145 T01720056 53018
KPHX 191551Z 09011KT 10SM BKN110 20/04 A3000 RMK AO2 SLP146 T02000044
KPHX 191651Z 09011KT 10SM SCT110 23/04 A3000 RMK AO2 SLP144 T02280039
KPHX 191751Z 10008KT 10SM FEW080 FEW120 SCT150 SCT220 24/04 A3000 RMK AO2 SLP145 T02440039 10244 20156 51001
KPHX 191851Z 12007KT 090V160 10SM FEW080 FEW120 SCT150 BKN230 26/04 A2998 RMK AO2 SLP139 T02560044
KPHX 191951Z 12009KT 080V150 10SM FEW090 BKN130 BKN180 BKN250 28/03 A2995 RMK AO2 SLP129 T02780028
KPHX 192051Z 11005KT 10SM FEW090 BKN130 BKN180 BKN250 28/03 A2992 RMK AO2 SLP117 T02830028 58027
KPHX 192151Z VRB05KT 10SM FEW090 BKN120 BKN250 29/02 A2990 RMK AO2 SLP110 T02890017
KPHX 192251Z 14009KT 10SM BKN100 BKN250 29/02 A2988 RMK AO2 SLP105 T02890022
KPHX 192351Z 10SM BKN100 BKN250 28/01 A2986 RMK AO2 SLP099 T02830011 10294 20244 56018
KPHX 200051Z VRB03KT 10SM FEW100 SCT250 28/01 A2985 RMK AO2 SLP096 T02780011
KPHX 200151Z 00000KT 10SM FEW100 FEW250 26/03 A2986 RMK AO2 SLP100 T02610028
KPHX 200251Z 00000KT 10SM FEW100 25/04 A2987 RMK AO2 SLP103 T02500044 53003



Page loaded:  03:16 UTC  |   08:16 PM Pacific  |   09:16 PM Mountain  |   10:16 PM Central  |   11:16 PM Eastern

 

ADVISORIES

FORECASTS

FORECASTS

OBSERVATIONS

USER TOOLS

ABOUT US